createdAt,value
2023-01-26T00:02:15.309Z,21.05
2023-01-26T00:04:41.989Z,24.88
2023-01-26T00:07:08.720Z,27.88
2023-01-26T00:09:35.338Z,27.20
2023-01-26T00:12:01.952Z,29.83
2023-01-26T00:14:48.573Z,26.13
2023-01-26T00:17:16.131Z,21.85
2023-01-26T00:19:42.724Z,25.42
2023-01-26T00:22:09.326Z,20.50
2023-01-26T00:24:35.918Z,21.45
2023-01-26T00:27:02.506Z,23.83
2023-01-26T00:29:29.103Z,32.45
2023-01-26T00:31:55.778Z,24.00
2023-01-26T00:34:22.561Z,24.80
2023-01-26T00:36:49.149Z,29.63
2023-01-26T00:39:15.769Z,25.88
2023-01-26T00:42:02.310Z,27.05
2023-01-26T00:44:28.960Z,23.98
2023-01-26T00:46:55.565Z,23.67
2023-01-26T00:49:22.143Z,27.27
2023-01-26T00:51:48.789Z,32.30
2023-01-26T00:54:15.397Z,24.13
2023-01-26T00:56:42.038Z,26.65
2023-01-26T00:59:08.775Z,23.92
2023-01-26T01:01:35.476Z,31.17
2023-01-26T01:04:02.131Z,24.13
2023-01-26T01:06:28.752Z,26.60
2023-01-26T01:08:55.353Z,26.15
2023-01-26T01:11:21.905Z,21.58
2023-01-26T01:13:48.538Z,24.50
2023-01-26T01:16:16.392Z,24.42
2023-01-26T01:18:43.361Z,25.95
2023-01-26T01:21:11.143Z,24.38
2023-01-26T01:23:37.864Z,28.10
2023-01-26T01:26:04.734Z,23.98
2023-01-26T01:28:32.324Z,23.95
2023-01-26T01:30:59.208Z,29.88
2023-01-26T01:33:25.903Z,23.50
2023-01-26T01:36:00.554Z,19.80
2023-01-26T01:38:27.292Z,21.67
2023-01-26T01:40:54.269Z,22.95
2023-01-26T01:43:21.032Z,28.23
2023-01-26T01:45:48.467Z,25.73
2023-01-26T01:48:40.094Z,20.98
2023-01-26T01:51:10.570Z,22.00
2023-01-26T01:53:39.279Z,23.67
2023-01-26T01:56:08.775Z,23.13
2023-01-26T01:58:37.101Z,22.67
2023-01-26T02:01:03.831Z,21.48
2023-01-26T02:03:30.544Z,18.42
2023-01-26T02:06:21.535Z,23.38
2023-01-26T02:08:56.062Z,27.05
2023-01-26T02:11:29.596Z,24.58
2023-01-26T02:13:56.296Z,23.58
2023-01-26T02:16:23.152Z,21.95
2023-01-26T02:18:49.804Z,20.20
2023-01-26T02:21:19.164Z,24.02
2023-01-26T02:26:32.302Z,25.38
2023-01-26T02:28:59.457Z,23.73
2023-01-26T02:31:26.110Z,28.58
2023-01-26T02:33:52.922Z,20.10
2023-01-26T02:36:22.393Z,31.73
2023-01-26T02:39:02.462Z,34.42
2023-01-26T02:41:49.014Z,28.27
2023-01-26T02:44:15.679Z,30.30
2023-01-26T02:46:42.553Z,26.48
2023-01-26T02:49:29.150Z,24.50
2023-01-26T02:51:55.750Z,23.85
2023-01-26T02:54:42.281Z,23.55
2023-01-26T02:57:08.878Z,30.10
2023-01-26T02:59:35.495Z,26.05
2023-01-26T03:02:02.199Z,33.42
2023-01-26T03:04:28.928Z,25.75
2023-01-26T03:06:55.557Z,26.83
2023-01-26T03:09:22.143Z,23.30
2023-01-26T03:11:48.728Z,31.77
2023-01-26T03:14:15.547Z,25.00
2023-01-26T03:16:42.311Z,30.77
2023-01-26T03:19:31.455Z,26.35
2023-01-26T03:22:18.345Z,22.15
2023-01-26T03:25:04.917Z,25.15
2023-01-26T03:27:35.280Z,24.65
2023-01-26T03:30:01.896Z,25.92
2023-01-26T03:32:28.539Z,23.90
2023-01-26T03:34:55.127Z,27.00
2023-01-26T03:37:22.598Z,23.98
2023-01-26T03:40:10.619Z,26.42
2023-01-26T03:42:57.425Z,19.10
2023-01-26T03:45:43.970Z,23.67
2023-01-26T03:48:31.708Z,22.17
2023-01-26T03:51:18.277Z,23.33
2023-01-26T03:54:04.812Z,27.80
2023-01-26T03:56:32.664Z,25.17
2023-01-26T03:59:08.259Z,25.52
2023-01-26T04:01:36.387Z,24.20
2023-01-26T04:04:23.047Z,26.73
2023-01-26T04:07:10.061Z,23.85
2023-01-26T04:09:37.105Z,24.75
2023-01-26T04:12:04.291Z,25.92
2023-01-26T04:14:50.943Z,24.15
2023-01-26T04:17:38.411Z,23.77
2023-01-26T04:20:26.101Z,24.73
2023-01-26T04:22:52.846Z,24.80
2023-01-26T04:25:20.388Z,25.20
2023-01-26T04:27:47.090Z,28.20
2023-01-26T04:30:14.739Z,23.00
2023-01-26T04:32:41.482Z,24.27
2023-01-26T04:35:08.805Z,23.45
2023-01-26T04:37:35.467Z,23.00
2023-01-26T04:40:02.330Z,24.67
2023-01-26T04:42:28.982Z,27.95
2023-01-26T04:44:55.619Z,26.08
2023-01-26T04:47:22.218Z,22.20
2023-01-26T04:49:48.891Z,24.83
2023-01-26T04:52:15.625Z,21.88
2023-01-26T04:54:42.394Z,21.15
2023-01-26T04:57:09.038Z,21.50
2023-01-26T04:59:35.660Z,24.95
2023-01-26T05:02:02.510Z,26.92
2023-01-26T05:04:29.222Z,27.73
2023-01-26T05:06:55.912Z,28.42
2023-01-26T05:09:22.515Z,24.25
2023-01-26T05:11:49.151Z,23.90
2023-01-26T05:14:15.949Z,19.25
2023-01-26T05:16:42.682Z,28.67
2023-01-26T05:19:09.389Z,22.70
2023-01-26T05:21:36.077Z,18.50
2023-01-26T05:24:02.760Z,21.50
2023-01-26T05:26:29.447Z,22.70
2023-01-26T05:28:56.078Z,21.48
2023-01-26T05:31:22.761Z,21.70
2023-01-26T05:33:49.403Z,22.08
2023-01-26T05:36:16.051Z,24.13
2023-01-26T05:38:42.736Z,18.63
2023-01-26T05:41:09.393Z,21.08
2023-01-26T05:43:36.045Z,19.70
2023-01-26T05:46:02.896Z,17.00
2023-01-26T05:48:29.573Z,21.02
2023-01-26T05:50:58.082Z,21.63
2023-01-26T05:53:24.916Z,20.42
2023-01-26T05:55:51.585Z,21.50
2023-01-26T05:58:18.254Z,19.42
2023-01-26T06:00:44.852Z,21.33
2023-01-26T06:03:11.476Z,21.33
2023-01-26T06:05:38.900Z,19.98
2023-01-26T06:08:05.788Z,20.10
2023-01-26T06:10:32.441Z,17.08
2023-01-26T06:13:00.193Z,19.80
2023-01-26T06:15:26.827Z,20.70
2023-01-26T06:17:53.426Z,19.08
2023-01-26T06:20:20.035Z,23.10
2023-01-26T06:22:46.691Z,20.85
2023-01-26T06:25:13.409Z,20.42
2023-01-26T06:27:42.171Z,20.67
2023-01-26T06:30:10.417Z,19.80
2023-01-26T06:32:37.551Z,24.48
2023-01-26T06:35:07.001Z,19.33
2023-01-26T06:37:33.750Z,18.52
2023-01-26T06:40:00.314Z,26.55
2023-01-26T06:42:26.991Z,20.70
2023-01-26T06:44:53.644Z,28.13
2023-01-26T06:47:20.371Z,24.88
2023-01-26T06:49:47.023Z,24.02
2023-01-26T06:52:33.638Z,32.15
2023-01-26T06:55:00.532Z,28.88
2023-01-26T06:57:27.200Z,31.38
2023-01-26T06:59:53.996Z,22.80
2023-01-26T07:02:21.525Z,25.50
2023-01-26T07:04:48.856Z,23.48
2023-01-26T07:07:15.571Z,23.25
2023-01-26T07:09:42.255Z,23.75
2023-01-26T07:12:09.615Z,23.13
2023-01-26T07:14:36.291Z,25.02
2023-01-26T07:17:02.863Z,22.08
2023-01-26T07:19:31.283Z,27.52
2023-01-26T07:21:57.924Z,24.75
2023-01-26T07:24:24.671Z,28.85
2023-01-26T07:26:51.418Z,21.83
2023-01-26T07:29:18.095Z,23.80
2023-01-26T07:31:44.827Z,25.75
2023-01-26T07:34:11.918Z,21.35
2023-01-26T07:36:38.548Z,21.58
2023-01-26T07:39:08.375Z,23.00
2023-01-26T07:41:35.517Z,23.42
2023-01-26T07:44:02.231Z,31.65
2023-01-26T07:46:29.031Z,25.08
2023-01-26T07:48:56.091Z,29.17
2023-01-26T07:51:23.463Z,24.65
2023-01-26T07:53:50.327Z,27.33
2023-01-26T07:56:19.387Z,20.63
2023-01-26T07:58:50.635Z,21.88
2023-01-26T08:01:17.345Z,27.48
2023-01-26T08:03:45.517Z,26.20
2023-01-26T08:06:13.952Z,21.40
2023-01-26T08:08:42.520Z,18.75
2023-01-26T08:11:10.176Z,22.20
2023-01-26T08:13:36.876Z,19.17
2023-01-26T08:16:06.707Z,21.65
2023-01-26T08:18:33.457Z,22.75
2023-01-26T08:21:00.457Z,27.13
2023-01-26T08:23:27.462Z,26.95
2023-01-26T08:25:54.255Z,24.60
2023-01-26T08:28:21.331Z,28.10
2023-01-26T08:30:48.025Z,23.20
2023-01-26T08:33:14.777Z,26.60
2023-01-26T08:35:41.433Z,24.10
2023-01-26T08:38:08.410Z,28.48
2023-01-26T08:40:35.073Z,27.20
2023-01-26T08:43:02.370Z,26.75
2023-01-26T08:45:30.784Z,22.42
2023-01-26T08:47:57.695Z,26.05
2023-01-26T08:50:25.052Z,26.42
2023-01-26T08:52:51.728Z,22.55
2023-01-26T08:55:18.399Z,24.63
2023-01-26T08:57:47.074Z,28.17
2023-01-26T09:00:14.801Z,23.92
2023-01-26T09:02:41.600Z,27.02
2023-01-26T09:05:08.834Z,24.45
2023-01-26T09:07:35.464Z,26.30
2023-01-26T09:10:02.162Z,22.65
2023-01-26T09:12:28.818Z,25.33
2023-01-26T09:14:55.449Z,24.90
2023-01-26T09:17:22.185Z,21.73
2023-01-26T09:19:49.131Z,22.20
2023-01-26T09:22:15.765Z,23.92
2023-01-26T09:24:42.587Z,23.25
2023-01-26T09:27:09.303Z,25.95
2023-01-26T09:29:35.950Z,24.20
2023-01-26T09:32:02.561Z,21.73
2023-01-26T09:34:29.246Z,23.80
2023-01-26T09:36:55.950Z,25.08
2023-01-26T09:39:22.586Z,28.23
2023-01-26T09:42:15.079Z,23.77
2023-01-26T09:44:48.661Z,25.88
2023-01-26T09:47:22.507Z,30.52
2023-01-26T09:49:52.036Z,22.85
2023-01-26T09:52:36.100Z,22.95
2023-01-26T09:55:06.791Z,21.27
2023-01-26T09:57:37.523Z,22.98
2023-01-26T10:00:09.885Z,21.58
2023-01-26T10:05:14.952Z,28.80
2023-01-26T10:07:45.292Z,27.80
2023-01-26T10:10:19.108Z,22.58
2023-01-26T10:12:45.686Z,24.60
2023-01-26T10:15:31.364Z,24.38
2023-01-26T10:18:02.504Z,21.45
2023-01-26T10:20:34.148Z,25.63
2023-01-26T10:23:12.905Z,24.67
2023-01-26T10:25:40.613Z,22.92
2023-01-26T10:28:30.258Z,22.67
2023-01-26T10:30:56.981Z,23.75
2023-01-26T10:33:33.337Z,24.95
2023-01-26T10:36:00.932Z,21.23
2023-01-26T10:38:39.351Z,19.45
2023-01-26T10:41:08.894Z,23.63
2023-01-26T10:43:37.439Z,25.00
2023-01-26T10:46:04.659Z,21.75
2023-01-26T10:48:31.727Z,25.15
2023-01-26T10:51:17.045Z,22.77
2023-01-26T10:53:44.174Z,21.10
2023-01-26T10:56:15.885Z,19.13
2023-01-26T10:58:55.106Z,21.08
2023-01-26T11:01:23.257Z,20.08
2023-01-26T11:04:12.147Z,19.65
2023-01-26T11:06:39.138Z,25.45
2023-01-26T11:09:28.132Z,20.95
2023-01-26T11:12:00.607Z,20.77
2023-01-26T11:14:27.421Z,17.52
2023-01-26T11:17:14.125Z,18.33
2023-01-26T11:19:48.297Z,20.65
2023-01-26T11:22:19.415Z,19.00
2023-01-26T11:25:02.077Z,21.48
2023-01-26T11:38:36.416Z,18.88
2023-01-26T11:43:55.665Z,23.73
2023-01-26T11:46:33.084Z,17.80
2023-01-26T11:49:09.198Z,20.08
2023-01-26T11:52:17.092Z,20.60
2023-01-26T11:55:00.818Z,16.45
2023-01-26T11:57:52.412Z,18.15
2023-01-26T12:00:56.299Z,18.95
2023-01-26T12:03:44.470Z,14.77
2023-01-26T12:06:17.938Z,18.20
2023-01-26T12:08:52.990Z,19.45
2023-01-26T12:11:26.292Z,18.40
2023-01-26T12:13:58.672Z,18.95
2023-01-26T12:19:10.689Z,26.27
2023-01-26T12:21:38.948Z,15.63
2023-01-26T12:24:05.910Z,19.92
2023-01-26T12:26:34.050Z,21.40
2023-01-26T12:29:17.642Z,17.65
2023-01-26T12:32:04.039Z,18.77
2023-01-26T12:34:33.667Z,16.90
2023-01-26T12:37:24.494Z,17.85
2023-01-26T12:40:06.886Z,21.33
2023-01-26T12:42:56.436Z,16.08
2023-01-26T12:45:27.926Z,16.65
2023-01-26T12:48:34.022Z,19.77
2023-01-26T12:51:04.377Z,17.38
2023-01-26T12:53:38.004Z,14.35
2023-01-26T12:56:11.288Z,21.13
2023-01-26T12:58:39.656Z,19.67
2023-01-26T13:01:15.304Z,24.00
2023-01-26T13:03:58.184Z,17.23
2023-01-26T13:06:25.955Z,22.42
2023-01-26T13:09:23.736Z,16.75
2023-01-26T13:11:58.887Z,28.42
2023-01-26T13:14:38.847Z,19.40
2023-01-26T13:17:28.007Z,23.90
2023-01-26T13:19:59.543Z,18.15
2023-01-26T13:25:25.816Z,23.15
2023-01-26T13:27:57.229Z,24.50
2023-01-26T13:30:27.734Z,20.03
2023-01-26T13:35:33.159Z,25.85
2023-01-26T13:38:12.877Z,25.83
2023-01-26T13:40:43.033Z,18.73
2023-01-26T13:46:12.538Z,20.48
2023-01-26T13:51:26.581Z,21.25
2023-01-26T13:54:04.892Z,17.35
2023-01-26T13:56:33.791Z,22.42
2023-01-26T13:59:08.350Z,20.55
2023-01-26T14:01:42.466Z,20.23
2023-01-26T14:04:13.773Z,13.82
2023-01-26T14:06:40.415Z,16.80
2023-01-26T14:09:10.104Z,17.30
2023-01-26T14:11:36.798Z,21.35
2023-01-26T14:14:03.732Z,16.98
2023-01-26T14:16:35.160Z,28.88
2023-01-26T14:21:49.886Z,14.65
2023-01-26T14:24:17.074Z,18.73
2023-01-26T14:26:43.761Z,22.15
2023-01-26T14:29:13.539Z,17.23
2023-01-26T14:31:40.325Z,17.17
2023-01-26T14:34:09.630Z,16.65
2023-01-26T14:36:39.348Z,15.38
2023-01-26T14:39:17.231Z,16.67
2023-01-26T14:41:43.993Z,21.70
2023-01-26T14:44:10.696Z,23.45
2023-01-26T14:47:03.073Z,19.25
2023-01-26T14:49:58.532Z,16.02
2023-01-26T14:52:27.983Z,17.48
2023-01-26T14:54:56.633Z,16.17
2023-01-26T14:57:25.318Z,20.50
2023-01-26T14:59:55.076Z,15.35
2023-01-26T15:02:25.340Z,12.93
2023-01-26T15:04:56.276Z,16.13
2023-01-26T15:07:43.768Z,15.20
2023-01-26T15:10:34.630Z,15.25
2023-01-26T15:16:03.556Z,20.48
2023-01-26T15:18:32.465Z,24.52
2023-01-26T15:23:46.025Z,22.00
2023-01-26T15:26:21.987Z,16.77
2023-01-26T15:28:51.551Z,16.45
2023-01-26T15:31:21.498Z,16.58
2023-01-26T15:33:52.727Z,17.70
2023-01-26T15:36:30.104Z,17.42
2023-01-26T15:39:02.085Z,23.38
2023-01-26T15:41:29.040Z,22.13
2023-01-26T15:43:56.713Z,18.67
2023-01-26T15:46:23.588Z,23.15
2023-01-26T15:48:50.208Z,17.80
2023-01-26T15:51:16.851Z,20.38
2023-01-26T15:53:43.547Z,18.90
2023-01-26T15:56:12.269Z,24.00
2023-01-26T15:58:38.927Z,19.50
2023-01-26T16:01:05.889Z,26.02
2023-01-26T16:03:32.472Z,22.73
2023-01-26T16:05:59.313Z,22.30
2023-01-26T16:08:25.913Z,16.45
2023-01-26T16:10:52.823Z,22.90
2023-01-26T16:13:19.472Z,23.15
2023-01-26T16:15:47.825Z,22.40
2023-01-26T16:18:14.537Z,19.92
2023-01-26T16:20:43.735Z,16.85
2023-01-26T16:23:27.300Z,18.33
2023-01-26T16:25:54.391Z,17.92
2023-01-26T16:28:21.382Z,20.95
2023-01-26T16:30:50.031Z,19.02
2023-01-26T16:33:20.825Z,25.05
2023-01-26T16:35:47.831Z,19.10
2023-01-26T16:38:14.555Z,20.48
2023-01-26T16:40:42.384Z,20.73
2023-01-26T16:43:23.326Z,21.42
2023-01-26T16:45:50.474Z,18.25
2023-01-26T16:48:17.195Z,17.80
2023-01-26T16:50:44.210Z,18.85
2023-01-26T16:53:31.093Z,22.88
2023-01-26T16:55:57.719Z,21.75
2023-01-26T16:58:26.696Z,21.02
2023-01-26T17:00:55.397Z,20.13
2023-01-26T17:03:22.152Z,17.30
2023-01-26T17:05:50.715Z,20.58
2023-01-26T17:08:17.542Z,17.73
2023-01-26T17:10:59.830Z,20.25
2023-01-26T17:13:28.149Z,24.88
2023-01-26T17:15:56.715Z,21.20
2023-01-26T17:18:23.380Z,30.70
2023-01-26T17:20:50.049Z,22.10
2023-01-26T17:23:16.680Z,23.88
2023-01-26T17:25:46.435Z,16.33
2023-01-26T17:28:13.067Z,17.92
2023-01-26T17:30:39.713Z,17.65
2023-01-26T17:33:06.308Z,17.33
2023-01-26T17:35:32.906Z,25.40
2023-01-26T17:37:59.564Z,24.23
2023-01-26T17:40:26.204Z,19.13
2023-01-26T17:42:52.801Z,18.65
2023-01-26T17:45:19.446Z,16.77
2023-01-26T17:47:46.079Z,19.60
2023-01-26T17:50:12.819Z,21.80
2023-01-26T17:52:39.505Z,20.52
2023-01-26T17:55:07.240Z,19.23
2023-01-26T17:57:34.151Z,22.45
2023-01-26T18:00:00.779Z,20.55
2023-01-26T18:02:27.375Z,21.90
2023-01-26T18:04:54.081Z,19.52
2023-01-26T18:07:20.759Z,25.15
2023-01-26T18:09:47.429Z,17.10
2023-01-26T18:12:14.024Z,18.27
2023-01-26T18:14:40.739Z,15.68
2023-01-26T18:17:07.443Z,15.15
2023-01-26T18:19:34.075Z,22.95
2023-01-26T18:22:00.751Z,15.98
2023-01-26T18:24:27.437Z,18.02
2023-01-26T18:26:54.144Z,16.20
2023-01-26T18:29:20.833Z,17.60
2023-01-26T18:31:48.190Z,12.00
2023-01-26T18:34:15.416Z,15.98
2023-01-26T18:36:42.072Z,17.42
2023-01-26T18:39:11.605Z,17.98
2023-01-26T18:41:40.574Z,16.83
2023-01-26T18:44:08.194Z,22.33
2023-01-26T18:46:35.080Z,18.90
2023-01-26T18:49:02.941Z,18.98
2023-01-26T18:51:30.891Z,18.70
2023-01-26T18:53:57.769Z,21.13
2023-01-26T18:56:24.558Z,19.55
2023-01-26T18:58:52.628Z,18.25
2023-01-26T19:01:20.991Z,21.00
2023-01-26T19:03:47.944Z,17.58
2023-01-26T19:06:18.208Z,16.35
2023-01-26T19:08:45.980Z,15.70
2023-01-26T19:11:12.566Z,17.83
2023-01-26T19:13:42.069Z,16.10
2023-01-26T19:16:09.409Z,20.25
2023-01-26T19:18:36.315Z,19.70
2023-01-26T19:21:03.830Z,21.58
2023-01-26T19:23:30.563Z,23.80
2023-01-26T19:25:57.305Z,18.63
2023-01-26T19:28:24.085Z,20.88
2023-01-26T19:30:50.785Z,17.42
2023-01-26T19:33:24.550Z,16.55
2023-01-26T19:35:52.498Z,15.30
2023-01-26T19:38:19.468Z,16.35
2023-01-26T19:40:47.112Z,16.83
2023-01-26T19:43:14.632Z,17.85
2023-01-26T19:45:41.348Z,14.30
2023-01-26T19:48:08.477Z,13.55
2023-01-26T19:50:35.233Z,17.30
2023-01-26T19:53:01.896Z,16.40
2023-01-26T19:55:28.521Z,17.02
2023-01-26T19:57:55.161Z,16.65
2023-01-26T20:00:21.972Z,17.75
2023-01-26T20:02:48.598Z,17.88
2023-01-26T20:05:15.268Z,18.08
2023-01-26T20:07:42.246Z,15.13
2023-01-26T20:10:09.567Z,16.70
2023-01-26T20:12:36.370Z,17.52
2023-01-26T20:15:04.017Z,13.02
2023-01-26T20:17:30.622Z,14.45
2023-01-26T20:19:57.254Z,16.75
2023-01-26T20:22:24.160Z,15.18
2023-01-26T20:24:50.907Z,20.00
2023-01-26T20:27:17.546Z,14.57
2023-01-26T20:29:44.275Z,18.23
2023-01-26T20:32:10.920Z,12.93
2023-01-26T20:34:40.994Z,11.43
2023-01-26T20:37:08.703Z,11.43
2023-01-26T20:39:35.348Z,14.05
2023-01-26T20:42:01.957Z,20.70
2023-01-26T20:44:28.989Z,15.40
2023-01-26T20:46:55.712Z,12.20
2023-01-26T20:49:22.370Z,10.50
2023-01-26T20:51:49.105Z,12.38
2023-01-26T20:54:16.888Z,9.48
2023-01-26T20:56:45.550Z,10.63
2023-01-26T20:59:12.352Z,14.63
2023-01-26T21:01:38.968Z,9.32
2023-01-26T21:04:05.924Z,9.63
2023-01-26T21:06:32.684Z,9.93
2023-01-26T21:08:59.502Z,9.35
2023-01-26T21:11:27.130Z,13.75
2023-01-26T21:13:55.645Z,11.27
2023-01-26T21:16:23.116Z,14.15
2023-01-26T21:18:51.158Z,12.18
2023-01-26T21:21:17.941Z,10.98
2023-01-26T21:23:44.926Z,12.73
2023-01-26T21:26:13.486Z,12.00
2023-01-26T21:28:40.162Z,14.07
2023-01-26T21:31:11.499Z,15.25
2023-01-26T21:33:40.667Z,17.48
2023-01-26T21:36:08.301Z,12.85
2023-01-26T21:38:38.717Z,12.20
2023-01-26T21:41:30.685Z,14.18
2023-01-26T21:43:58.778Z,11.95
2023-01-26T21:46:25.795Z,16.02
2023-01-26T21:48:52.638Z,12.60
2023-01-26T21:51:39.270Z,12.88
2023-01-26T21:54:06.940Z,12.88
2023-01-26T21:56:34.244Z,14.35
2023-01-26T21:59:03.133Z,13.13
2023-01-26T22:01:32.611Z,13.30
2023-01-26T22:04:00.243Z,17.40
2023-01-26T22:06:27.069Z,14.55
2023-01-26T22:08:54.090Z,13.93
2023-01-26T22:11:21.119Z,13.23
2023-01-26T22:13:48.004Z,11.52
2023-01-26T22:16:14.765Z,13.27
2023-01-26T22:18:41.547Z,11.10
2023-01-26T22:21:08.288Z,12.80
2023-01-26T22:23:36.418Z,10.60
2023-01-26T22:26:06.452Z,16.52
2023-01-26T22:28:33.469Z,14.60
2023-01-26T22:31:03.202Z,14.27
2023-01-26T22:33:30.210Z,10.93
2023-01-26T22:36:06.298Z,15.48
2023-01-26T22:38:33.525Z,13.65
2023-01-26T22:41:00.231Z,13.25
2023-01-26T22:43:27.109Z,14.48
2023-01-26T22:45:53.840Z,13.93
2023-01-26T22:48:20.834Z,16.60
2023-01-26T22:50:47.537Z,15.70
2023-01-26T22:53:14.200Z,18.98
2023-01-26T22:55:41.922Z,15.15
2023-01-26T22:58:10.193Z,20.55
2023-01-26T23:00:38.202Z,14.68
2023-01-26T23:03:04.945Z,22.63
2023-01-26T23:05:33.027Z,21.73
2023-01-26T23:07:59.864Z,21.90
2023-01-26T23:10:26.866Z,19.35
2023-01-26T23:12:53.476Z,20.48
2023-01-26T23:15:20.075Z,24.67
2023-01-26T23:17:50.007Z,18.00
2023-01-26T23:20:18.530Z,19.20
2023-01-26T23:22:45.116Z,15.38
2023-01-26T23:25:31.935Z,18.38
2023-01-26T23:28:01.974Z,18.33
2023-01-26T23:30:28.844Z,23.98
2023-01-26T23:32:55.558Z,19.40
2023-01-26T23:35:23.038Z,17.58
2023-01-26T23:37:50.632Z,17.15
2023-01-26T23:40:17.403Z,19.00
2023-01-26T23:43:00.412Z,19.33
2023-01-26T23:45:30.728Z,16.77
2023-01-26T23:47:57.376Z,19.42
2023-01-26T23:50:24.046Z,17.45
2023-01-26T23:52:50.643Z,19.20
2023-01-26T23:55:17.551Z,19.75
2023-01-26T23:57:44.174Z,17.20
